Time;durP1;ratioP1;P1;durP2;ratioP2;P2;SDS_P1;SDS_P2;PMS_P1;PMS_P2;Temp;Humidity;BMP_temperature;BMP_pressure;BME280_temperature;BME280_humidity;BME280_pressure;Samples;Min_cycle;Max_cycle;Signal;HPM_P1;HPM_P2
2023/06/06 00:01:40;;;;;;;;;8.33;8.33;;;;;-147.17;100.00;12178.69;5085133;27;53162;-58
2023/06/06 00:04:06;;;;;;;;;9.33;9.33;;;;;-147.17;100.00;12178.69;5092641;27;52768;-58
2023/06/06 00:06:33;;;;;;;;;10.00;9.67;;;;;-147.17;100.00;11679.66;5089870;27;51157;-59
2023/06/06 00:08:59;;;;;;;;;9.00;9.00;;;;;-147.17;100.00;11430.19;5088516;27;51213;-58
2023/06/06 00:11:25;;;;;;;;;10.33;10.00;;;;;-147.17;100.00;11929.16;5073562;27;51136;-59
2023/06/06 00:13:50;;;;;;;;;8.33;8.33;;;;;-147.17;100.00;11180.69;5091646;27;51252;-58
2023/06/06 00:16:16;;;;;;;;;11.33;10.33;;;;;-147.17;100.00;10432.38;5090173;27;51013;-58
2023/06/06 00:18:42;;;;;;;;;8.67;8.00;;;;;-147.17;100.00;9434.84;5088247;27;51088;-58
2023/06/06 00:21:08;;;;;;;;;11.33;9.67;;;;;-147.17;100.00;9434.84;5088531;27;51725;-58
2023/06/06 00:23:34;;;;;;;;;11.67;11.00;;;;;-147.17;100.00;10182.97;5093003;27;51257;-58
2023/06/06 00:25:59;;;;;;;;;15.67;9.67;;;;;-147.17;100.00;8936.16;5089581;27;51822;-58
2023/06/06 00:28:25;;;;;;;;;9.67;8.33;;;;;-147.17;100.00;8686.84;5092305;27;51141;-59
2023/06/06 00:30:50;;;;;;;;;13.00;11.67;;;;;-147.17;100.00;9434.84;5091536;27;52154;-58
2023/06/06 00:33:15;;;;;;;;;10.00;9.00;;;;;-147.17;100.00;8437.53;5091917;27;51227;-59
2023/06/06 00:35:41;;;;;;;;;9.67;9.67;;;;;-147.17;100.00;7440.50;5091356;27;51232;-58
2023/06/06 00:38:06;;;;;;;;;8.00;8.00;;;;;-147.17;100.00;8686.84;5087132;27;51171;-58
2023/06/06 00:40:32;;;;;;;;;11.67;9.00;;;;;-147.17;100.00;7191.28;5089097;27;52014;-58
2023/06/06 00:42:57;;;;;;;;;14.00;13.00;;;;;-147.17;100.00;6692.91;5091704;27;51336;-59
2023/06/06 00:45:22;;;;;;;;;10.00;10.00;;;;;-147.17;100.00;6692.91;5091529;27;51328;-59
2023/06/06 00:47:48;;;;;;;;;12.33;11.00;;;;;-147.17;100.00;4949.06;5091590;27;51145;-58
2023/06/06 00:50:14;;;;;;;;;10.00;9.67;;;;;-147.17;100.00;4700.00;5092004;27;51090;-58
2023/06/06 00:52:46;;;;;;;;;12.33;11.00;;;;;-147.17;100.00;4450.97;5081570;27;51143;-58
2023/06/06 00:55:13;;;;;;;;;10.67;10.00;;;;;-147.17;100.00;5696.34;5081683;27;51054;-58
2023/06/06 00:57:41;;;;;;;;;13.00;11.00;;;;;-147.17;100.00;5447.22;5085419;27;51103;-59
2023/06/06 01:00:08;;;;;;;;;10.33;10.33;;;;;-147.17;100.00;4201.94;5079830;27;52333;-58
2023/06/06 01:02:37;;;;;;;;;12.33;11.33;;;;;-147.17;100.00;4450.97;5090346;27;51120;-58
2023/06/06 01:05:09;;;;;;;;;11.33;10.00;;;;;-147.17;100.00;3952.94;5090940;27;51321;-58
2023/06/06 01:07:35;;;;;;;;;9.33;9.33;;;;;-147.17;100.00;3952.94;5059374;27;51776;-58
2023/06/06 01:10:02;;;;;;;;;13.33;12.67;;;;;-147.17;100.00;2957.06;5088372;27;52645;-59
2023/06/06 01:12:47;;;;;;;;;11.00;9.67;;;;;-147.17;100.00;1463.72;5073825;27;51190;-58
2023/06/06 01:15:35;;;;;;;;;9.00;8.33;;;;;-147.17;100.00;1712.56;5085909;27;51242;-59
2023/06/06 01:18:02;;;;;;;;;11.67;10.00;;;;;-147.17;100.00;468.50;5080824;27;51403;-58
2023/06/06 01:20:30;;;;;;;;;13.33;11.67;;;;;-147.17;100.00;468.50;5091279;27;51343;-58
2023/06/06 01:22:56;;;;;;;;;12.00;10.50;;;;;-147.17;100.00;-277.75;5092235;27;51132;-59
2023/06/06 01:25:23;;;;;;;;;9.33;9.33;;;;;-147.17;100.00;-2018.47;5076202;27;51249;-58
2023/06/06 01:27:53;;;;;;;;;13.33;12.67;;;;;-147.17;100.00;-1272.53;5072445;27;51183;-59
2023/06/06 01:30:21;;;;;;;;;14.00;12.33;;;;;-147.17;100.00;-775.19;5084898;27;52703;-58
2023/06/06 01:33:26;;;;;;;;;9.67;9.67;;;;;-147.17;100.00;-2267.06;5092663;27;50990;-59
2023/06/06 01:36:12;;;;;;;;;12.33;10.67;;;;;-147.17;100.00;-3012.78;5084115;27;52683;-61
2023/06/06 01:38:44;;;;;;;;;13.00;12.33;;;;;-147.17;100.00;-3261.34;5092299;27;51209;-59
2023/06/06 01:41:14;;;;;;;;;11.00;8.67;;;;;-147.17;100.00;-3012.78;5079087;27;52559;-59
2023/06/06 01:43:41;;;;;;;;;10.67;9.67;;;;;-147.17;100.00;-3261.34;5085626;27;51218;-59
2023/06/06 01:46:07;;;;;;;;;15.00;13.67;;;;;-147.17;100.00;-3758.38;5086659;27;51289;-59
2023/06/06 01:48:34;;;;;;;;;13.00;12.67;;;;;-147.17;100.00;-4006.88;5092183;27;51276;-59
2023/06/06 01:51:00;;;;;;;;;11.33;11.33;;;;;-147.17;100.00;-4255.34;5088933;27;51869;-59
2023/06/06 01:53:25;;;;;;;;;12.00;12.00;;;;;-147.17;100.00;-5249.09;5092552;27;51000;-59
2023/06/06 01:55:51;;;;;;;;;14.00;11.33;;;;;-147.17;100.00;-6490.94;5088003;27;51192;-59
2023/06/06 01:58:17;;;;;;;;;13.67;11.00;;;;;-147.17;100.00;-5994.25;5086156;27;51345;-59
2023/06/06 02:00:43;;;;;;;;;15.00;14.00;;;;;-147.17;100.00;-6490.94;5086214;27;52245;-59
2023/06/06 02:03:08;;;;;;;;;16.67;12.67;;;;;-147.17;100.00;-5994.25;5087584;27;50980;-58
2023/06/06 02:05:34;;;;;;;;;13.33;12.67;;;;;-147.17;100.00;-7484.09;5090962;27;51081;-59
2023/06/06 02:07:59;;;;;;;;;15.33;14.00;;;;;-147.17;100.00;-7235.84;5091171;27;51066;-59
2023/06/06 02:10:24;;;;;;;;;14.00;13.33;;;;;-147.17;100.00;-7484.09;5084037;27;51292;-59
2023/06/06 02:12:50;;;;;;;;;14.67;12.67;;;;;-147.17;100.00;-8725.22;5086919;27;51220;-59
2023/06/06 02:15:15;;;;;;;;;13.67;13.00;;;;;-147.17;100.00;-8477.03;5087051;27;50944;-59
2023/06/06 02:17:42;;;;;;;;;15.67;15.00;;;;;-147.17;100.00;-9469.69;5074664;27;51236;-59
2023/06/06 02:20:09;;;;;;;;;15.25;14.50;;;;;-147.17;100.00;-9717.81;5074345;27;51790;-59
2023/06/06 02:22:34;;;;;;;;;13.00;12.00;;;;;-147.17;100.00;-9717.81;5084815;27;51227;-59
2023/06/06 02:25:03;;;;;;;;;14.33;13.67;;;;;-147.17;100.00;-9469.69;5087399;27;51266;-59
2023/06/06 02:27:29;;;;;;;;;16.00;15.67;;;;;-147.17;100.00;-9221.53;5087483;27;51212;-59
2023/06/06 02:29:55;;;;;;;;;13.67;13.00;;;;;-147.17;100.00;-9221.53;5092522;27;51916;-58
2023/06/06 02:32:21;;;;;;;;;15.00;13.33;;;;;-147.17;100.00;-9469.69;5080445;27;51120;-58
2023/06/06 02:34:46;;;;;;;;;17.33;16.33;;;;;-147.17;100.00;-9717.81;5077282;27;51244;-58
2023/06/06 02:37:11;;;;;;;;;13.67;13.00;;;;;-147.17;100.00;-9965.91;5082229;27;51198;-58
2023/06/06 02:39:37;;;;;;;;;16.33;15.33;;;;;-147.17;100.00;-9717.81;5075326;28;51853;-58
2023/06/06 02:42:06;;;;;;;;;17.33;16.00;;;;;-147.17;100.00;-9717.81;5091096;27;50994;-58
2023/06/06 02:44:32;;;;;;;;;17.25;16.25;;;;;-147.17;100.00;-10214.00;5077567;27;50940;-58
2023/06/06 02:46:57;;;;;;;;;16.67;14.00;;;;;-147.17;100.00;-10462.09;5090727;27;51362;-58
2023/06/06 02:49:23;;;;;;;;;18.00;17.33;;;;;-147.17;100.00;-10958.19;5085344;27;52390;-58
2023/06/06 02:51:49;;;;;;;;;17.67;15.67;;;;;-147.17;100.00;-11702.25;5092022;27;50950;-58
2023/06/06 02:54:14;;;;;;;;;15.00;15.00;;;;;-147.17;100.00;-11702.25;5094943;27;51066;-58
2023/06/06 02:56:39;;;;;;;;;16.00;15.50;;;;;-147.17;100.00;-11454.25;5092475;27;51276;-59
2023/06/06 02:59:07;;;;;;;;;17.00;16.50;;;;;-147.17;100.00;-12198.19;5083702;27;51780;-58
2023/06/06 03:01:33;;;;;;;;;16.75;14.50;;;;;-147.17;100.00;-12941.97;5089562;27;51063;-58
2023/06/06 03:03:59;;;;;;;;;17.33;17.00;;;;;-147.17;100.00;-12446.13;5087263;27;51165;-58
2023/06/06 03:06:24;;;;;;;;;16.25;16.25;;;;;-147.17;100.00;-12694.06;5083331;27;51401;-58
2023/06/06 03:08:54;;;;;;;;;18.00;15.67;;;;;-147.17;100.00;-12198.19;5086130;27;52164;-58
2023/06/06 03:11:20;;;;;;;;;18.50;16.00;;;;;-147.17;100.00;-12941.97;5092051;27;51220;-58
2023/06/06 03:13:46;;;;;;;;;13.50;13.00;;;;;-147.17;100.00;-12941.97;5088433;27;50980;-58
2023/06/06 03:16:13;;;;;;;;;16.50;16.00;;;;;-147.17;100.00;-12941.97;5082038;27;51341;-58
2023/06/06 03:18:39;;;;;;;;;18.75;17.00;;;;;-147.17;100.00;-13437.75;5080026;27;51275;-58
2023/06/06 03:21:04;;;;;;;;;13.67;13.67;;;;;-147.17;100.00;-13437.75;5092875;27;51164;-58
2023/06/06 03:23:29;;;;;;;;;19.75;16.75;;;;;-147.17;100.00;-13189.88;5094286;27;51730;-57
2023/06/06 03:25:55;;;;;;;;;21.50;19.75;;;;;-147.17;100.00;-13685.63;5090845;27;51273;-58
2023/06/06 03:28:21;;;;;;;;;16.75;16.00;;;;;-147.17;100.00;-14429.16;5093341;27;52013;-58
2023/06/06 03:30:46;;;;;;;;;17.25;15.75;;;;;-147.17;100.00;-13933.50;5093943;27;51163;-59
2023/06/06 03:33:12;;;;;;;;;17.25;16.25;;;;;-147.17;100.00;-13933.50;5094743;27;50906;-60
2023/06/06 03:35:38;;;;;;;;;20.50;18.00;;;;;-147.17;100.00;-14676.94;5082372;27;51267;-59
2023/06/06 03:38:04;;;;;;;;;20.25;17.00;;;;;-147.17;100.00;-14429.16;5083141;27;52641;-59
2023/06/06 03:40:29;;;;;;;;;21.50;17.75;;;;;-147.17;100.00;-14676.94;5091539;27;51254;-59
2023/06/06 03:42:55;;;;;;;;;19.75;17.75;;;;;-147.17;100.00;-14924.75;5077375;27;51185;-60
2023/06/06 03:45:24;;;;;;;;;19.00;17.00;;;;;-147.17;100.00;-14924.75;5082967;27;51368;-59
2023/06/06 03:47:50;;;;;;;;;19.50;18.00;;;;;-147.17;100.00;-15172.50;5094679;27;51252;-59
2023/06/06 03:50:15;;;;;;;;;19.75;19.25;;;;;-147.17;100.00;-15420.25;5092151;27;51225;-59
2023/06/06 03:52:41;;;;;;;;;18.00;18.00;;;;;-147.17;100.00;-15668.00;5089591;27;51182;-59
2023/06/06 03:55:09;;;;;;;;;18.75;18.50;;;;;-147.17;100.00;-15915.72;5091581;27;51129;-59
2023/06/06 03:57:35;;;;;;;;;35.25;31.50;;;;;-147.17;100.00;-15915.72;5085838;27;52738;-59
2023/06/06 04:00:04;;;;;;;;;21.25;21.00;;;;;-147.17;100.00;-15917.19;5082084;27;51058;-59
2023/06/06 04:02:31;;;;;;;;;20.50;19.50;;;;;-147.17;100.00;-15917.19;5093682;27;51083;-59
2023/06/06 04:05:01;;;;;;;;;20.75;20.00;;;;;-147.17;100.00;-15917.19;5092018;27;51233;-60
2023/06/06 04:07:28;;;;;;;;;75.00;65.00;;;;;-147.17;100.00;-15917.19;5088323;27;52071;-59
2023/06/06 04:09:53;;;;;;;;;18.25;16.25;;;;;-147.17;100.00;-15917.19;5085769;27;51863;-59
2023/06/06 04:12:19;;;;;;;;;24.50;20.25;;;;;-147.17;100.00;-15917.19;5105600;27;51296;-60
2023/06/06 04:14:44;;;;;;;;;23.25;22.00;;;;;-147.17;100.00;-15917.19;5086619;27;51209;-60
2023/06/06 04:17:10;;;;;;;;;22.00;21.50;;;;;-147.17;100.00;-15917.19;5087911;27;51801;-59
2023/06/06 04:19:36;;;;;;;;;20.75;19.75;;;;;-147.17;100.00;-15917.19;5073641;28;51195;-59
2023/06/06 04:22:02;;;;;;;;;20.50;20.00;;;;;-147.17;100.00;-15917.19;5088481;27;52211;-60
2023/06/06 04:24:28;;;;;;;;;20.25;19.50;;;;;-147.17;100.00;-15917.19;5093198;27;51618;-60
2023/06/06 04:26:53;;;;;;;;;24.50;22.50;;;;;-147.17;100.00;-15917.19;5093751;27;51786;-59
2023/06/06 04:29:19;;;;;;;;;22.75;20.75;;;;;-147.17;100.00;-15917.19;5088188;27;51096;-59
2023/06/06 04:31:47;;;;;;;;;22.50;21.50;;;;;-147.17;100.00;-15917.19;5090648;27;51114;-59
2023/06/06 04:34:12;;;;;;;;;21.25;20.00;;;;;-147.17;100.00;-15917.19;5080814;27;51011;-59
2023/06/06 04:36:38;;;;;;;;;22.75;21.25;;;;;-147.17;100.00;-15917.19;5092743;27;51047;-59
2023/06/06 04:39:07;;;;;;;;;29.75;27.00;;;;;-147.17;100.00;-15917.19;5094027;27;51334;-60
2023/06/06 04:41:34;;;;;;;;;28.00;23.50;;;;;-147.17;100.00;-15917.19;5088205;27;51137;-58
2023/06/06 04:44:02;;;;;;;;;25.50;23.25;;;;;-147.17;100.00;-15917.19;5080229;27;50956;-60
2023/06/06 04:46:29;;;;;;;;;25.00;22.75;;;;;-147.17;100.00;-15917.19;5092121;27;52154;-58
2023/06/06 04:48:56;;;;;;;;;26.25;23.75;;;;;-147.17;100.00;-15917.19;5093029;27;51069;-60
2023/06/06 04:51:29;;;;;;;;;22.50;21.25;;;;;-147.17;100.00;-15917.19;5090090;27;51882;-60
2023/06/06 04:53:58;;;;;;;;;27.25;25.00;;;;;-147.17;100.00;-15917.19;5092587;27;51078;-59
2023/06/06 04:56:26;;;;;;;;;24.00;22.25;;;;;-147.17;100.00;-15917.19;5091255;27;51890;-59
2023/06/06 04:58:53;;;;;;;;;32.00;27.50;;;;;-147.17;100.00;-15917.19;5091849;27;51128;-60
2023/06/06 05:01:18;;;;;;;;;28.75;26.75;;;;;-147.17;100.00;-15917.19;5088062;27;51164;-60
2023/06/06 05:03:44;;;;;;;;;28.00;27.00;;;;;-147.17;100.00;-15917.19;5085882;27;51143;-59
2023/06/06 05:06:10;;;;;;;;;29.50;28.50;;;;;-147.17;100.00;-15917.19;5088560;27;52217;-59
2023/06/06 05:08:44;;;;;;;;;33.00;29.00;;;;;-147.17;100.00;-15917.19;5080050;27;51105;-59
2023/06/06 05:11:10;;;;;;;;;29.50;28.50;;;;;-147.17;100.00;-15917.19;5081606;27;51174;-59
2023/06/06 05:13:36;;;;;;;;;29.25;25.25;;;;;-147.17;100.00;-15917.19;5091136;27;50889;-59
2023/06/06 05:16:01;;;;;;;;;32.75;30.00;;;;;-147.17;100.00;-15917.19;5087255;27;52101;-58
2023/06/06 05:18:30;;;;;;;;;31.00;29.50;;;;;-147.17;100.00;-15917.19;5076960;27;51196;-58
2023/06/06 05:21:00;;;;;;;;;31.25;29.25;;;;;-147.17;100.00;-15917.19;5091790;27;51110;-58
2023/06/06 05:23:26;;;;;;;;;32.00;29.00;;;;;-147.17;100.00;-15917.19;5093406;27;52074;-58
2023/06/06 05:25:51;;;;;;;;;25.00;22.00;;;;;-147.17;100.00;-15917.19;5090890;27;51162;-60
2023/06/06 05:28:17;;;;;;;;;31.75;30.50;;;;;-147.17;100.00;-15917.19;5091197;27;51075;-59
2023/06/06 05:30:42;;;;;;;;;31.00;30.00;;;;;-147.17;100.00;-15917.19;5089652;27;51232;-59
2023/06/06 05:33:08;;;;;;;;;35.75;30.25;;;;;-147.17;100.00;-15917.19;5086633;27;51276;-60
2023/06/06 05:35:34;;;;;;;;;35.25;32.00;;;;;-147.17;100.00;-15917.19;5081306;27;51825;-60
2023/06/06 05:37:59;;;;;;;;;44.00;34.75;;;;;-147.17;100.00;-15917.19;5080937;27;51253;-60
2023/06/06 05:40:24;;;;;;;;;35.75;30.75;;;;;-147.17;100.00;-15917.19;5084420;27;51089;-59
2023/06/06 05:42:50;;;;;;;;;40.00;34.00;;;;;-147.17;100.00;-15917.19;5092703;27;51088;-59
2023/06/06 05:45:15;;;;;;;;;35.25;32.00;;;;;-147.17;100.00;-15917.19;5085387;27;51728;-59
2023/06/06 05:47:40;;;;;;;;;36.00;31.75;;;;;-147.17;100.00;-15917.19;5089957;27;50961;-59
2023/06/06 05:50:06;;;;;;;;;35.50;31.50;;;;;-147.17;100.00;-15917.19;5079732;27;51146;-59
2023/06/06 05:52:32;;;;;;;;;35.00;31.25;;;;;-147.17;100.00;-15917.19;5091897;27;51314;-58
2023/06/06 05:55:03;;;;;;;;;31.00;29.00;;;;;-147.17;100.00;-15917.19;5089888;27;52036;-58
2023/06/06 05:57:28;;;;;;;;;32.25;30.00;;;;;-147.17;100.00;-15917.19;5081061;27;51015;-59
2023/06/06 05:59:54;;;;;;;;;38.25;32.75;;;;;-147.17;100.00;-15917.19;5071468;27;51257;-59
2023/06/06 06:02:20;;;;;;;;;32.25;30.25;;;;;-147.17;100.00;-15917.19;5087818;27;51183;-59
2023/06/06 06:04:45;;;;;;;;;34.75;31.75;;;;;-147.17;100.00;-15917.19;5095057;27;51272;-59
2023/06/06 06:07:11;;;;;;;;;33.50;31.75;;;;;-147.17;100.00;-15915.72;5090655;27;51167;-59
2023/06/06 06:09:37;;;;;;;;;38.75;33.00;;;;;-147.17;100.00;-15172.50;5094999;27;51164;-59
2023/06/06 06:12:03;;;;;;;;;32.50;30.50;;;;;-147.17;100.00;-13685.63;5094608;27;51264;-58
2023/06/06 06:14:29;;;;;;;;;35.25;31.75;;;;;-147.17;100.00;-12941.97;5089621;27;51300;-58
2023/06/06 06:16:54;;;;;;;;;41.75;35.50;;;;;-147.17;100.00;-11206.22;5084058;27;51120;-58
2023/06/06 06:19:20;;;;;;;;;34.50;31.25;;;;;-147.17;100.00;-8725.22;5083593;27;51048;-58
2023/06/06 06:21:45;;;;;;;;;32.75;31.50;;;;;-147.17;100.00;-7484.09;5092110;27;51414;-58
2023/06/06 06:24:11;;;;;;;;;34.50;31.75;;;;;-147.17;100.00;-4006.88;5090647;27;51804;-59
2023/06/06 06:26:36;;;;;;;;;35.00;32.00;;;;;-147.17;100.00;-1521.19;5086652;27;51214;-59
2023/06/06 06:29:01;;;;;;;;;60.75;50.00;;;;;-147.17;100.00;1214.91;5086996;27;51698;-58
2023/06/06 06:31:27;;;;;;;;;32.00;29.00;;;;;-147.17;100.00;5696.34;5091846;27;51184;-58
2023/06/06 06:33:53;;;;;;;;;36.75;33.00;;;;;-147.17;100.00;8936.16;5093171;27;53521;-59
2023/06/06 06:36:18;;;;;;;;;33.25;32.00;;;;;-147.17;100.00;16173.25;5083972;27;51120;-59
2023/06/06 06:38:44;;;;;;;;;34.25;30.25;;;;;-147.17;100.00;16922.66;5077317;27;51012;-58
2023/06/06 06:41:09;;;;;;;;;31.00;29.00;;;;;-147.17;100.00;25445.94;5086751;27;51031;-58
2023/06/06 06:43:35;;;;;;;;;45.00;36.50;;;;;-147.17;100.00;29086.00;5073729;28;53472;-58
2023/06/06 06:46:01;;;;;;;;;43.50;36.50;;;;;-147.17;100.00;31385.28;5075140;27;50898;-59
2023/06/06 06:48:26;;;;;;;;;32.25;30.75;;;;;-147.17;100.00;33752.59;5089060;27;51209;-59
2023/06/06 06:50:52;;;;;;;;;35.25;32.75;;;;;-147.17;100.00;36560.69;5075583;27;51494;-59
2023/06/06 06:53:18;;;;;;;;;34.25;31.00;;;;;-147.17;100.00;38581.75;5077475;27;51155;-58
2023/06/06 06:55:45;;;;;;;;;29.25;28.50;;;;;-147.17;100.00;40215.03;5093536;27;51133;-59
2023/06/06 06:58:13;;;;;;;;;37.50;32.25;;;;;-147.17;100.00;40342.69;5093469;27;51091;-58
2023/06/06 07:00:39;;;;;;;;;35.00;32.50;;;;;-147.17;100.00;41483.66;5082730;27;51262;-58
2023/06/06 07:03:05;;;;;;;;;34.50;31.50;;;;;-147.17;100.00;41332.44;5093016;27;52268;-58
2023/06/06 07:05:31;;;;;;;;;30.00;27.50;;;;;-147.17;100.00;42917.75;5092067;27;50971;-59
2023/06/06 07:07:57;;;;;;;;;32.75;30.00;;;;;-147.17;100.00;43218.38;5080437;27;51391;-59
2023/06/06 07:10:24;;;;;;;;;32.50;30.25;;;;;-147.17;100.00;43648.75;5080665;27;51397;-59
2023/06/06 07:12:51;;;;;;;;;34.75;31.75;;;;;-147.17;100.00;43802.03;5081858;27;51125;-59
2023/06/06 07:15:17;;;;;;;;;29.25;27.75;;;;;-147.17;100.00;43522.97;5088285;27;51084;-58
2023/06/06 07:17:46;;;;;;;;;34.00;30.50;;;;;-147.17;100.00;44049.66;5092833;27;51074;-59
2023/06/06 07:20:12;;;;;;;;;34.25;30.75;;;;;-147.17;100.00;44710.09;5095084;27;51297;-55
2023/06/06 07:22:37;;;;;;;;;30.25;29.25;;;;;-147.17;100.00;45185.84;5094243;27;51099;-55
2023/06/06 07:25:06;;;;;;;;;31.25;30.00;;;;;-147.17;100.00;44753.34;5094244;27;51051;-62
2023/06/06 07:27:35;;;;;;;;;29.25;28.25;;;;;-147.17;100.00;44588.22;5074355;27;50950;-68
2023/06/06 07:30:06;;;;;;;;;31.00;29.25;;;;;-147.17;100.00;44429.00;5084689;27;51298;-70
2023/06/06 07:32:33;;;;;;;;;34.00;31.50;;;;;-147.17;100.00;44468.31;5082149;27;51203;-69
2023/06/06 07:34:59;;;;;;;;;30.25;29.75;;;;;-147.17;100.00;44525.31;5094936;27;51489;-69
2023/06/06 07:37:24;;;;;;;;;33.50;29.75;;;;;-147.17;100.00;44087.00;5095113;27;51328;-68
2023/06/06 07:39:49;;;;;;;;;33.50;30.50;;;;;-147.17;100.00;44413.28;5095747;27;51407;-69
2023/06/06 07:42:15;;;;;;;;;31.25;30.00;;;;;-147.17;100.00;43908.16;5093270;27;51487;-69
2023/06/06 07:44:40;;;;;;;;;32.50;30.50;;;;;-147.17;100.00;43249.81;5079078;27;50966;-68
2023/06/06 07:47:06;;;;;;;;;32.75;31.75;;;;;-147.17;100.00;43487.59;5092773;27;51162;-69
2023/06/06 07:49:31;;;;;;;;;33.25;30.50;;;;;-147.17;100.00;43658.56;5076515;27;51349;-69
2023/06/06 07:51:57;;;;;;;;;29.50;27.25;;;;;-147.17;100.00;44452.59;5076207;27;52730;-70
2023/06/06 07:54:22;;;;;;;;;35.25;31.00;;;;;-147.17;100.00;44558.75;5092303;27;51205;-69
2023/06/06 07:56:48;;;;;;;;;22.00;22.00;;;;;-147.17;100.00;44525.31;5093798;27;51321;-68
2023/06/06 07:59:13;;;;;;;;;30.00;27.75;;;;;-147.17;100.00;44525.31;5092760;27;51321;-68
2023/06/06 08:01:38;;;;;;;;;43.50;36.75;;;;;-147.17;100.00;44725.81;5073627;27;53989;-68
2023/06/06 08:04:07;;;;;;;;;31.25;29.25;;;;;-147.17;100.00;45533.84;5077698;27;55523;-70
2023/06/06 08:06:33;;;;;;;;;31.00;30.25;;;;;-147.17;100.00;45160.28;5087394;27;51246;-69
2023/06/06 08:08:59;;;;;;;;;30.00;29.50;;;;;-147.17;100.00;45437.50;5089498;27;52611;-70
2023/06/06 08:11:25;;;;;;;;;31.00;29.75;;;;;-147.17;100.00;45413.91;5089475;27;53492;-70
2023/06/06 08:13:50;;;;;;;;;29.75;27.00;;;;;-147.17;100.00;45520.06;5089378;27;51122;-68
2023/06/06 08:16:16;;;;;;;;;29.75;27.50;;;;;-147.17;100.00;45445.34;5083538;27;50963;-69
2023/06/06 08:18:41;;;;;;;;;30.50;28.75;;;;;-147.17;100.00;45714.72;5081344;27;51178;-69
2023/06/06 08:21:07;;;;;;;;;31.75;28.75;;;;;-147.17;100.00;45539.72;5092097;27;51833;-70
2023/06/06 08:23:33;;;;;;;;;25.00;25.00;;;;;-147.17;100.00;45327.41;5089252;27;51024;-69
2023/06/06 08:25:59;;;;;;;;;42.25;35.25;;;;;-147.17;100.00;45242.84;5090475;27;51186;-69
2023/06/06 08:28:26;;;;;;;;;37.50;33.75;;;;;-147.17;100.00;45366.72;5086974;27;51133;-68
2023/06/06 08:30:52;;;;;;;;;33.00;29.75;;;;;-147.17;100.00;45419.81;5091535;27;52302;-68
2023/06/06 08:33:19;;;;;;;;;32.00;29.50;;;;;-147.17;100.00;45547.59;5086786;27;52646;-68
2023/06/06 08:35:44;;;;;;;;;32.25;29.75;;;;;-147.17;100.00;45449.28;5087860;27;51224;-68
2023/06/06 08:38:10;;;;;;;;;31.25;29.00;;;;;-147.17;100.00;45508.28;5088241;27;50909;-68
2023/06/06 08:40:36;;;;;;;;;30.00;27.75;;;;;-147.17;100.00;45463.06;5086307;27;54372;-68
2023/06/06 08:43:04;;;;;;;;;29.50;28.50;;;;;-147.17;100.00;45339.19;5083917;27;51365;-68
2023/06/06 08:45:31;;;;;;;;;31.00;29.50;;;;;-147.17;100.00;45301.84;5093573;27;51102;-68
2023/06/06 08:47:58;;;;;;;;;31.00;29.50;;;;;-147.17;100.00;45457.16;5088566;27;51178;-68
2023/06/06 08:50:26;;;;;;;;;33.00;30.75;;;;;-147.17;100.00;45541.69;5090339;27;52808;-69
2023/06/06 08:52:52;;;;;;;;;33.25;29.25;;;;;-147.17;100.00;45484.69;5084242;27;50907;-67
2023/06/06 08:55:19;;;;;;;;;25.00;24.25;;;;;-147.17;100.00;45547.59;5091244;27;51208;-68
2023/06/06 08:57:48;;;;;;;;;26.00;25.00;;;;;-147.17;100.00;45537.78;5092574;27;51371;-68
2023/06/06 09:00:23;;;;;;;;;29.25;28.25;;;;;-147.17;100.00;45575.13;5091287;27;52180;-68
2023/06/06 09:02:52;;;;;;;;;26.00;26.00;;;;;-147.17;100.00;45583.00;5091649;27;51201;-68
2023/06/06 09:05:19;;;;;;;;;32.25;30.50;;;;;-147.17;100.00;45638.03;5086314;27;51141;-68
2023/06/06 09:07:48;;;;;;;;;30.50;29.00;;;;;-147.17;100.00;45472.88;5083402;27;52653;-68
2023/06/06 09:10:14;;;;;;;;;28.50;27.50;;;;;-147.17;100.00;45622.31;5088192;27;51671;-73
2023/06/06 09:12:41;;;;;;;;;32.25;30.25;;;;;-147.17;100.00;45600.69;5086628;27;51514;-71
2023/06/06 09:15:08;;;;;;;;;29.75;28.75;;;;;-147.17;100.00;45638.03;5086966;27;51295;-71
2023/06/06 09:17:43;;;;;;;;;24.50;24.50;;;;;-147.17;100.00;45575.13;5083111;27;51356;-71
2023/06/06 09:20:10;;;;;;;;;32.00;31.00;;;;;-147.17;100.00;45321.50;5084670;27;51885;-71
2023/06/06 09:22:44;;;;;;;;;27.75;27.00;;;;;-147.17;100.00;45046.25;5084272;27;51207;-71
2023/06/06 09:25:24;;;;;;;;;26.00;25.75;;;;;-147.17;100.00;44898.81;5083588;27;51209;-70
2023/06/06 09:27:59;;;;;;;;;27.75;25.75;;;;;-147.17;100.00;44822.16;5085270;27;51318;-70
2023/06/06 09:30:26;;;;;;;;;29.50;28.25;;;;;-147.17;100.00;44737.63;5087684;27;51913;-66
2023/06/06 09:33:00;;;;;;;;;25.75;25.75;;;;;-147.17;100.00;44755.31;5081443;27;51374;-67
2023/06/06 09:35:36;;;;;;;;;27.75;25.50;;;;;-147.17;100.00;44879.16;5086511;27;51240;-66
2023/06/06 09:38:08;;;;;;;;;29.75;27.25;;;;;-147.17;100.00;44867.38;5090734;27;51222;-67
2023/06/06 09:40:43;;;;;;;;;26.75;25.75;;;;;-147.17;100.00;44643.28;5092085;27;52697;-67
2023/06/06 09:43:08;;;;;;;;;28.75;26.00;;;;;-147.17;100.00;44550.88;5092219;27;50970;-67
2023/06/06 09:45:34;;;;;;;;;26.75;25.75;;;;;-147.17;100.00;44322.88;5090299;27;51054;-67
2023/06/06 09:48:00;;;;;;;;;25.75;25.00;;;;;-147.17;100.00;44368.06;5078332;27;51302;-67
2023/06/06 09:50:25;;;;;;;;;26.50;25.25;;;;;-147.17;100.00;44484.06;5075596;27;55228;-67
2023/06/06 09:52:51;;;;;;;;;23.50;23.25;;;;;-147.17;100.00;44513.53;5090361;27;51003;-67
2023/06/06 09:55:18;;;;;;;;;28.50;27.25;;;;;-147.17;100.00;44788.72;5092032;27;51091;-67
2023/06/06 09:57:45;;;;;;;;;32.00;30.50;;;;;-147.17;100.00;44885.06;5073793;27;51257;-67
2023/06/06 10:00:14;;;;;;;;;29.75;28.75;;;;;-147.17;100.00;45062.00;5071701;27;51916;-67
2023/06/06 10:02:43;;;;;;;;;35.00;30.00;;;;;-147.17;100.00;45435.53;5076890;27;51258;-68
2023/06/06 10:05:11;;;;;;;;;30.00;28.25;;;;;-147.17;100.00;45846.47;5072197;27;51026;-68
2023/06/06 10:07:39;;;;;;;;;34.25;31.00;;;;;-147.17;100.00;45883.81;5072019;27;50979;-68
2023/06/06 10:10:06;;;;;;;;;28.75;26.50;;;;;-147.17;100.00;45826.81;5091194;27;51942;-68
2023/06/06 10:12:32;;;;;;;;;31.75;30.25;;;;;-147.17;100.00;46025.41;5088093;27;51007;-68
2023/06/06 10:14:58;;;;;;;;;27.25;25.00;;;;;-147.17;100.00;46267.28;5080286;27;51080;-67
2023/06/06 10:17:25;;;;;;;;;27.75;27.50;;;;;-147.17;100.00;46351.84;5071697;27;51043;-68
2023/06/06 10:19:55;;;;;;;;;23.00;22.00;;;;;-147.17;100.00;46328.25;5070449;27;51037;-66
2023/06/06 10:22:21;;;;;;;;;28.00;27.25;;;;;-147.17;100.00;46707.81;5086805;27;51091;-68
2023/06/06 10:24:47;;;;;;;;;25.75;24.75;;;;;-147.17;100.00;47059.88;5071328;28;51005;-68
2023/06/06 10:27:24;;;;;;;;;28.75;26.50;;;;;-147.17;100.00;47323.44;5071239;27;51110;-67
2023/06/06 10:30:08;;;;;;;;;26.50;24.50;;;;;-147.17;100.00;47486.72;5071293;28;51241;-67
2023/06/06 10:33:02;;;;;;;;;29.25;28.75;;;;;-147.17;100.00;47750.31;5070217;28;51165;-68
2023/06/06 10:35:29;;;;;;;;;24.00;23.75;;;;;-147.17;100.00;48033.59;5079518;27;51173;-68
2023/06/06 10:38:20;;;;;;;;;25.00;24.00;;;;;-147.17;100.00;48313.00;5085418;27;51019;-68
2023/06/06 10:40:50;;;;;;;;;23.00;22.00;;;;;-147.17;100.00;48330.69;5083244;27;51185;-68
2023/06/06 10:43:41;;;;;;;;;23.75;23.50;;;;;-147.17;100.00;48338.56;5070470;28;51072;-68
2023/06/06 10:46:06;;;;;;;;;27.75;25.00;;;;;-147.17;100.00;48429.06;5076830;27;51093;-68
2023/06/06 10:48:40;;;;;;;;;28.00;26.00;;;;;-147.17;100.00;48442.84;5092688;27;51104;-67
2023/06/06 10:51:06;;;;;;;;;26.50;24.75;;;;;-147.17;100.00;48454.66;5070693;27;54064;-67
2023/06/06 10:53:32;;;;;;;;;27.25;27.00;;;;;-147.17;100.00;48446.78;5091266;27;51235;-67
2023/06/06 10:55:57;;;;;;;;;23.25;22.50;;;;;-147.17;100.00;48434.97;5086614;27;51236;-67